createdAt,value
2022-10-24T00:02:12.737Z,3.78
2022-10-24T00:04:42.254Z,5.25
2022-10-24T00:07:11.482Z,4.55
2022-10-24T00:09:41.885Z,3.90
2022-10-24T00:12:11.273Z,3.47
2022-10-24T00:14:40.313Z,2.63
2022-10-24T00:17:09.315Z,3.38
2022-10-24T00:19:38.573Z,3.40
2022-10-24T00:22:07.719Z,3.13
2022-10-24T00:24:36.703Z,3.35
2022-10-24T00:27:07.174Z,3.30
2022-10-24T00:29:36.362Z,3.88
2022-10-24T00:32:05.701Z,3.83
2022-10-24T00:34:34.739Z,2.90
2022-10-24T00:37:04.639Z,3.45
2022-10-24T00:39:33.758Z,2.97
2022-10-24T00:42:02.885Z,2.75
2022-10-24T00:44:36.951Z,3.25
2022-10-24T00:47:10.545Z,3.20
2022-10-24T00:49:47.195Z,3.72
2022-10-24T00:52:19.103Z,3.00
2022-10-24T00:54:49.053Z,3.10
2022-10-24T00:57:22.324Z,2.90
2022-10-24T00:59:56.804Z,2.75
2022-10-24T01:02:25.945Z,2.80
2022-10-24T01:04:55.353Z,3.10
2022-10-24T01:07:44.822Z,3.15
2022-10-24T01:10:26.932Z,2.80
2022-10-24T01:13:03.728Z,3.58
2022-10-24T01:15:43.634Z,2.50
2022-10-24T01:18:19.138Z,3.13
2022-10-24T01:21:08.217Z,3.70
2022-10-24T01:23:57.063Z,2.80
2022-10-24T01:26:50.183Z,3.13
2022-10-24T01:29:24.073Z,3.60
2022-10-24T01:31:58.925Z,2.90
2022-10-24T01:34:31.827Z,3.45
2022-10-24T01:37:04.208Z,3.35
2022-10-24T01:39:37.927Z,3.95
2022-10-24T01:42:08.738Z,4.72
2022-10-24T01:44:41.953Z,3.60
2022-10-24T01:47:17.912Z,3.50
2022-10-24T01:49:52.484Z,3.30
2022-10-24T01:52:22.657Z,2.88
2022-10-24T01:54:52.129Z,2.92
2022-10-24T01:57:21.344Z,3.58
2022-10-24T01:59:50.881Z,3.90
2022-10-24T02:02:25.381Z,3.25
2022-10-24T02:04:59.526Z,2.67
2022-10-24T02:07:31.685Z,2.67
2022-10-24T02:10:04.221Z,2.60
2022-10-24T02:12:33.489Z,3.55
2022-10-24T02:15:06.195Z,2.83
2022-10-24T02:17:36.695Z,3.30
2022-10-24T02:20:07.444Z,3.03
2022-10-24T02:22:46.097Z,3.40
2022-10-24T02:25:20.546Z,3.15
2022-10-24T02:27:56.445Z,3.08
2022-10-24T02:30:26.750Z,3.67
2022-10-24T02:33:01.358Z,2.92
2022-10-24T02:35:33.456Z,2.70
2022-10-24T02:38:10.056Z,2.83
2022-10-24T02:40:40.204Z,2.55
2022-10-24T02:43:11.681Z,3.05
2022-10-24T02:45:40.788Z,2.67
2022-10-24T02:48:15.238Z,2.80
2022-10-24T02:50:45.440Z,2.88
2022-10-24T02:53:16.982Z,2.83
2022-10-24T02:55:46.017Z,3.22
2022-10-24T02:58:15.109Z,3.00
2022-10-24T03:00:44.390Z,2.95
2022-10-24T03:03:15.433Z,2.70
2022-10-24T03:05:44.542Z,3.05
2022-10-24T03:08:14.026Z,3.05
2022-10-24T03:10:43.197Z,3.10
2022-10-24T03:13:12.455Z,2.92
2022-10-24T03:15:41.719Z,3.38
2022-10-24T03:18:11.162Z,3.10
2022-10-24T03:20:41.702Z,2.55
2022-10-24T03:23:11.081Z,3.60
2022-10-24T03:25:40.251Z,2.58
2022-10-24T03:28:09.347Z,3.15
2022-10-24T03:30:38.450Z,2.80
2022-10-24T03:33:07.646Z,3.15
2022-10-24T03:35:38.321Z,3.40
2022-10-24T03:38:09.361Z,2.53
2022-10-24T03:40:39.360Z,3.72
2022-10-24T03:43:08.429Z,3.63
2022-10-24T03:45:38.137Z,3.20
2022-10-24T03:48:07.751Z,3.05
2022-10-24T03:50:36.885Z,3.30
2022-10-24T03:53:06.380Z,2.75
2022-10-24T03:55:37.322Z,3.03
2022-10-24T03:58:06.475Z,2.58
2022-10-24T04:00:39.456Z,3.33
2022-10-24T04:03:09.806Z,3.10
2022-10-24T04:08:14.147Z,3.20
2022-10-24T04:10:44.621Z,2.65
2022-10-24T04:13:14.268Z,2.93
2022-10-24T04:15:43.377Z,3.40
2022-10-24T04:18:12.559Z,2.63
2022-10-24T04:20:41.671Z,2.72
2022-10-24T04:23:10.669Z,3.30
2022-10-24T04:25:40.791Z,2.25
2022-10-24T04:28:11.204Z,2.53
2022-10-24T04:30:40.380Z,2.40
2022-10-24T04:33:09.420Z,2.55
2022-10-24T04:35:38.413Z,3.05
2022-10-24T04:38:07.444Z,2.72
2022-10-24T04:40:36.455Z,2.70
2022-10-24T04:43:05.406Z,2.83
2022-10-24T04:45:35.803Z,2.67
2022-10-24T04:48:05.103Z,2.80
2022-10-24T04:50:34.208Z,2.78
2022-10-24T04:53:03.296Z,3.38
2022-10-24T04:55:32.583Z,2.78
2022-10-24T04:58:01.982Z,2.70
2022-10-24T05:00:31.630Z,2.78
2022-10-24T05:03:02.105Z,2.67
2022-10-24T05:05:31.125Z,2.97
2022-10-24T05:08:00.085Z,3.15
2022-10-24T05:10:29.109Z,2.85
2022-10-24T05:12:58.136Z,2.58
2022-10-24T05:15:29.971Z,2.85
2022-10-24T05:17:59.089Z,2.30
2022-10-24T05:20:30.110Z,2.83
2022-10-24T05:22:59.138Z,3.08
2022-10-24T05:25:28.236Z,2.33
2022-10-24T05:27:57.374Z,2.55
2022-10-24T05:30:26.300Z,2.85
2022-10-24T05:32:55.268Z,2.28
2022-10-24T05:35:24.413Z,2.63
2022-10-24T05:37:54.795Z,2.65
2022-10-24T05:40:24.065Z,2.93
2022-10-24T05:42:53.409Z,3.15
2022-10-24T05:45:23.138Z,2.55
2022-10-24T05:47:52.271Z,2.30
2022-10-24T05:50:22.015Z,2.33
2022-10-24T05:52:51.156Z,2.15
2022-10-24T05:55:21.728Z,2.42
2022-10-24T05:57:50.879Z,2.65
2022-10-24T06:00:20.267Z,2.60
2022-10-24T06:02:49.298Z,2.88
2022-10-24T06:05:18.571Z,2.38
2022-10-24T06:07:48.592Z,2.40
2022-10-24T06:10:18.018Z,2.80
2022-10-24T06:12:48.686Z,2.80
2022-10-24T06:15:17.907Z,2.13
2022-10-24T06:17:46.969Z,2.40
2022-10-24T06:20:15.998Z,2.30
2022-10-24T06:22:46.533Z,2.42
2022-10-24T06:25:16.084Z,2.78
2022-10-24T06:27:45.055Z,2.92
2022-10-24T06:30:15.646Z,2.55
2022-10-24T06:32:44.895Z,3.08
2022-10-24T06:35:15.913Z,3.92
2022-10-24T06:37:47.349Z,2.85
2022-10-24T06:40:18.189Z,2.53
2022-10-24T06:42:47.685Z,2.70
2022-10-24T06:45:18.587Z,2.30
2022-10-24T06:47:51.743Z,2.08
2022-10-24T06:50:23.234Z,2.55
2022-10-24T06:52:52.231Z,1.90
2022-10-24T06:55:21.410Z,1.83
2022-10-24T06:57:50.973Z,1.90
2022-10-24T07:00:21.685Z,2.20
2022-10-24T07:02:50.716Z,1.48
2022-10-24T07:05:21.360Z,1.80
2022-10-24T07:07:50.499Z,1.85
2022-10-24T07:10:19.718Z,1.95
2022-10-24T07:12:48.787Z,1.67
2022-10-24T07:15:17.951Z,1.80
2022-10-24T07:17:48.352Z,2.03
2022-10-24T07:20:17.567Z,1.67
2022-10-24T07:22:46.930Z,1.70
2022-10-24T07:25:16.346Z,1.55
2022-10-24T07:27:45.437Z,1.40
2022-10-24T07:30:18.802Z,1.08
2022-10-24T07:32:49.727Z,1.73
2022-10-24T07:35:18.822Z,1.50
2022-10-24T07:37:48.044Z,1.42
2022-10-24T07:40:17.892Z,1.50
2022-10-24T07:42:48.543Z,1.75
2022-10-24T07:45:17.593Z,1.25
2022-10-24T07:47:48.547Z,1.75
2022-10-24T07:50:17.913Z,1.40
2022-10-24T07:52:46.911Z,2.47
2022-10-24T07:55:16.112Z,1.27
2022-10-24T07:57:45.387Z,1.33
2022-10-24T08:00:15.870Z,1.20
2022-10-24T08:02:45.043Z,1.13
2022-10-24T08:05:18.155Z,1.10
2022-10-24T08:08:00.363Z,1.20
2022-10-24T08:10:40.122Z,0.95
2022-10-24T08:13:11.587Z,0.90
2022-10-24T08:15:43.111Z,1.10
2022-10-24T08:18:12.364Z,1.00
2022-10-24T08:20:42.764Z,1.05
2022-10-24T08:23:11.804Z,0.90
2022-10-24T08:25:42.091Z,0.80
2022-10-24T08:28:11.193Z,0.88
2022-10-24T08:30:40.223Z,0.80
2022-10-24T08:33:09.198Z,1.00
2022-10-24T08:35:38.459Z,0.90
2022-10-24T08:38:09.170Z,1.15
2022-10-24T08:40:38.220Z,0.60
2022-10-24T08:43:07.539Z,0.68
2022-10-24T08:45:45.960Z,0.40
2022-10-24T08:48:18.734Z,0.75
2022-10-24T08:50:54.728Z,0.50
2022-10-24T08:53:29.215Z,0.80
2022-10-24T08:56:00.923Z,0.88
2022-10-24T08:58:35.558Z,1.00
2022-10-24T09:01:09.537Z,1.10
2022-10-24T09:03:55.565Z,1.13
2022-10-24T09:06:27.760Z,0.93
2022-10-24T09:11:33.192Z,1.20
2022-10-24T09:14:03.408Z,0.95
2022-10-24T09:16:32.472Z,0.77
2022-10-24T09:19:01.991Z,1.20
2022-10-24T09:21:31.134Z,0.73
2022-10-24T09:24:02.804Z,0.98
2022-10-24T09:26:33.686Z,0.88
2022-10-24T09:29:03.063Z,1.00
2022-10-24T09:31:32.053Z,0.95
2022-10-24T09:34:04.266Z,0.70
2022-10-24T09:36:33.742Z,0.70
2022-10-24T09:39:26.521Z,0.55
2022-10-24T09:41:56.261Z,0.70
2022-10-24T09:44:35.626Z,0.75
2022-10-24T09:47:06.609Z,0.77
2022-10-24T09:49:38.164Z,0.77
2022-10-24T09:52:19.620Z,0.75
2022-10-24T09:57:40.901Z,0.70
2022-10-24T10:00:27.054Z,0.70
2022-10-24T10:03:00.104Z,0.90
2022-10-24T10:05:32.215Z,0.90
2022-10-24T10:08:11.900Z,0.80
2022-10-24T10:10:42.400Z,1.00
2022-10-24T10:13:25.418Z,0.87
2022-10-24T10:15:56.650Z,0.77
2022-10-24T10:18:29.795Z,0.95
2022-10-24T10:21:03.221Z,1.08
2022-10-24T10:23:36.395Z,1.00
2022-10-24T10:26:21.632Z,1.23
2022-10-24T10:28:59.935Z,0.90
2022-10-24T10:31:36.119Z,0.80
2022-10-24T10:34:25.232Z,0.80
2022-10-24T10:37:19.346Z,1.10
2022-10-24T10:40:13.251Z,1.10
2022-10-24T10:42:57.415Z,0.80
2022-10-24T10:45:36.467Z,0.90
2022-10-24T10:48:30.166Z,0.80
2022-10-24T10:51:08.108Z,0.90
2022-10-24T10:53:42.128Z,0.95
2022-10-24T10:56:25.396Z,1.40
2022-10-24T10:59:06.144Z,1.02
2022-10-24T11:01:45.479Z,0.98
2022-10-24T11:04:23.959Z,1.42
2022-10-24T11:07:02.514Z,0.70
2022-10-24T11:09:38.495Z,0.98
2022-10-24T11:12:12.512Z,0.98
2022-10-24T11:14:48.259Z,0.70
2022-10-24T11:17:22.061Z,0.90
2022-10-24T11:20:06.490Z,1.33
2022-10-24T11:22:40.011Z,0.90
2022-10-24T11:25:20.637Z,1.13
2022-10-24T11:27:55.195Z,0.60
2022-10-24T11:30:44.355Z,0.68
2022-10-24T11:33:19.062Z,0.65
2022-10-24T11:36:10.473Z,0.80
2022-10-24T11:38:46.664Z,0.90
2022-10-24T11:41:48.459Z,0.60
2022-10-24T11:44:26.825Z,0.57
2022-10-24T11:47:08.612Z,0.70
2022-10-24T11:49:42.295Z,0.60
2022-10-24T11:52:19.212Z,0.70
2022-10-24T11:54:54.313Z,0.50
2022-10-24T11:57:25.832Z,0.60
2022-10-24T11:59:55.573Z,0.40
2022-10-24T12:03:16.122Z,0.35
2022-10-24T12:06:04.033Z,0.40
2022-10-24T12:09:05.530Z,0.40
2022-10-24T12:11:50.780Z,0.45
2022-10-24T12:14:33.331Z,0.52
2022-10-24T12:17:22.633Z,0.40
2022-10-24T12:19:53.760Z,0.47
2022-10-24T12:22:28.050Z,0.63
2022-10-24T12:25:06.735Z,0.40
2022-10-24T12:27:39.012Z,0.50
2022-10-24T12:30:18.791Z,0.60
2022-10-24T12:32:51.139Z,0.52
2022-10-24T12:35:54.640Z,0.80
2022-10-24T12:39:09.570Z,0.60
2022-10-24T12:41:44.204Z,0.50
2022-10-24T12:44:38.039Z,0.60
2022-10-24T12:47:38.638Z,0.70
2022-10-24T12:50:57.419Z,0.60
2022-10-24T12:53:38.576Z,0.60
2022-10-24T12:59:02.876Z,0.63
2022-10-24T13:01:37.765Z,0.47
2022-10-24T13:04:49.288Z,0.40
2022-10-24T13:07:48.366Z,0.43
2022-10-24T13:10:31.927Z,0.35
2022-10-24T13:13:29.008Z,0.40
2022-10-24T13:16:08.223Z,0.30
2022-10-24T13:18:51.323Z,0.32
2022-10-24T13:21:28.456Z,0.30
2022-10-24T13:24:14.145Z,0.40
2022-10-24T13:26:45.369Z,0.68
2022-10-24T13:29:17.496Z,0.40
2022-10-24T13:31:52.190Z,0.30
2022-10-24T13:34:32.922Z,0.30
2022-10-24T13:37:08.151Z,0.30
2022-10-24T13:39:43.653Z,0.30
2022-10-24T13:42:27.958Z,0.30
2022-10-24T13:45:01.194Z,0.30
2022-10-24T13:47:34.298Z,0.30
2022-10-24T13:50:07.059Z,0.40
2022-10-24T13:52:49.075Z,0.30
2022-10-24T13:55:26.133Z,0.40
2022-10-24T13:58:00.092Z,0.40
2022-10-24T14:00:32.196Z,0.35
2022-10-24T14:03:04.621Z,0.52
2022-10-24T14:05:37.346Z,0.40
2022-10-24T14:08:08.207Z,0.30
2022-10-24T14:10:40.132Z,0.30
2022-10-24T14:13:17.810Z,0.40
2022-10-24T14:15:50.491Z,0.38
2022-10-24T14:18:21.063Z,0.40
2022-10-24T14:20:54.040Z,0.30
2022-10-24T14:23:26.979Z,0.30
2022-10-24T14:25:59.772Z,0.20
2022-10-24T14:28:31.668Z,0.28
2022-10-24T14:31:03.113Z,0.47
2022-10-24T14:33:33.784Z,0.35
2022-10-24T14:36:04.787Z,0.52
2022-10-24T14:38:35.299Z,0.35
2022-10-24T14:41:10.263Z,0.40
2022-10-24T14:43:42.764Z,0.30
2022-10-24T14:46:35.878Z,0.20
2022-10-24T14:49:23.931Z,0.43
2022-10-24T14:51:55.766Z,0.73
2022-10-24T14:54:27.714Z,0.75
2022-10-24T14:56:59.925Z,0.30
2022-10-24T14:59:35.148Z,0.30
2022-10-24T15:02:07.007Z,0.50
2022-10-24T15:04:40.112Z,0.30
2022-10-24T15:07:26.953Z,0.40
2022-10-24T15:09:57.990Z,0.40
2022-10-24T15:12:38.823Z,0.43
2022-10-24T15:15:23.199Z,0.32
2022-10-24T15:17:53.502Z,0.30
2022-10-24T15:20:27.494Z,0.85
2022-10-24T15:22:58.307Z,0.60
2022-10-24T15:25:30.750Z,0.40
2022-10-24T15:28:02.848Z,0.55
2022-10-24T15:30:36.895Z,0.60
2022-10-24T15:33:07.605Z,0.52
2022-10-24T15:35:40.423Z,0.55
2022-10-24T15:38:15.489Z,0.38
2022-10-24T15:40:47.029Z,0.60
2022-10-24T15:43:20.101Z,0.50
2022-10-24T15:45:49.162Z,0.52
2022-10-24T15:48:18.308Z,0.30
2022-10-24T15:50:47.933Z,0.55
2022-10-24T15:53:20.913Z,0.30
2022-10-24T15:55:50.133Z,0.50
2022-10-24T15:58:20.698Z,0.70
2022-10-24T16:00:51.017Z,0.50
2022-10-24T16:03:24.031Z,0.50
2022-10-24T16:05:54.868Z,0.60
2022-10-24T16:08:24.217Z,0.68
2022-10-24T16:10:54.646Z,0.60
2022-10-24T16:13:25.039Z,0.60
2022-10-24T16:15:54.243Z,0.68
2022-10-24T16:18:23.260Z,0.88
2022-10-24T16:20:52.266Z,0.40
2022-10-24T16:23:21.243Z,0.70
2022-10-24T16:25:50.238Z,0.52
2022-10-24T16:28:23.563Z,0.60
2022-10-24T16:30:54.729Z,0.85
2022-10-24T16:33:23.876Z,0.93
2022-10-24T16:35:52.932Z,0.80
2022-10-24T16:38:21.962Z,1.27
2022-10-24T16:40:51.101Z,1.20
2022-10-24T16:43:21.461Z,1.55
2022-10-24T16:45:59.840Z,2.42
2022-10-24T16:48:29.893Z,1.67
2022-10-24T16:50:59.149Z,1.42
2022-10-24T16:53:28.370Z,1.15
2022-10-24T16:55:59.017Z,0.90
2022-10-24T16:58:28.209Z,0.90
2022-10-24T17:01:05.964Z,1.15
2022-10-24T17:03:35.912Z,1.67
2022-10-24T17:06:06.099Z,1.40
2022-10-24T17:08:35.926Z,1.90
2022-10-24T17:11:20.265Z,1.25
2022-10-24T17:13:54.820Z,1.30
2022-10-24T17:16:25.483Z,1.00
2022-10-24T17:19:12.181Z,1.83
2022-10-24T17:21:41.653Z,2.42
2022-10-24T17:24:12.691Z,2.15
2022-10-24T17:26:42.654Z,1.63
2022-10-24T17:29:14.592Z,1.17
2022-10-24T17:31:45.311Z,1.55
2022-10-24T17:34:14.814Z,1.75
2022-10-24T17:36:49.505Z,2.33
2022-10-24T17:41:59.681Z,2.20
2022-10-24T17:44:29.675Z,3.40
2022-10-24T17:47:01.055Z,2.60
2022-10-24T17:51:59.273Z,2.85
2022-10-24T17:54:28.600Z,1.83
2022-10-24T17:56:57.749Z,1.98
2022-10-24T17:59:26.867Z,2.00
2022-10-24T18:01:56.118Z,2.30
2022-10-24T18:04:26.757Z,2.53
2022-10-24T18:06:55.796Z,2.30
2022-10-24T18:09:24.793Z,2.10
2022-10-24T18:11:53.852Z,2.50
2022-10-24T18:14:23.098Z,2.85
2022-10-24T18:16:52.263Z,2.22
2022-10-24T18:19:21.762Z,1.38
2022-10-24T18:21:52.264Z,0.80
2022-10-24T18:24:21.408Z,0.73
2022-10-24T18:26:50.506Z,0.70
2022-10-24T18:29:19.601Z,0.80
2022-10-24T18:31:48.610Z,0.60
2022-10-24T18:34:18.998Z,0.70
2022-10-24T18:36:48.184Z,0.60
2022-10-24T18:39:18.842Z,0.50
2022-10-24T18:41:50.528Z,1.05
2022-10-24T18:44:26.270Z,0.70
2022-10-24T18:46:58.083Z,0.60
2022-10-24T18:49:27.819Z,0.60
2022-10-24T18:52:08.059Z,0.70
2022-10-24T18:54:41.835Z,0.60
2022-10-24T18:57:22.965Z,0.73
2022-10-24T18:59:52.639Z,0.50
2022-10-24T19:02:32.867Z,0.65
2022-10-24T19:05:15.246Z,0.70
2022-10-24T19:07:45.305Z,0.85
2022-10-24T19:10:22.078Z,0.82
2022-10-24T19:12:52.149Z,0.80
2022-10-24T19:15:22.292Z,0.73
2022-10-24T19:17:52.786Z,0.80
2022-10-24T19:20:24.610Z,0.93
2022-10-24T19:22:53.840Z,0.77
2022-10-24T19:25:24.266Z,0.80
2022-10-24T19:30:28.599Z,1.77
2022-10-24T19:32:58.406Z,0.73
2022-10-24T19:35:28.067Z,0.80
2022-10-24T19:37:57.431Z,0.90
2022-10-24T19:40:28.476Z,1.13
2022-10-24T19:45:27.666Z,1.15
2022-10-24T19:47:57.168Z,1.00
2022-10-24T19:50:26.458Z,1.05
2022-10-24T19:52:55.464Z,1.10
2022-10-24T19:55:24.671Z,1.10
2022-10-24T19:57:55.539Z,1.00
2022-10-24T20:00:26.296Z,1.10
2022-10-24T20:02:55.390Z,1.05
2022-10-24T20:05:26.827Z,1.27
2022-10-24T20:07:55.934Z,1.40
2022-10-24T20:10:25.154Z,1.48
2022-10-24T20:12:56.022Z,1.55
2022-10-24T20:15:26.070Z,2.90
2022-10-24T20:17:55.268Z,4.32
2022-10-24T20:20:25.249Z,4.25
2022-10-24T20:22:54.695Z,4.50
2022-10-24T20:25:24.196Z,3.10
2022-10-24T20:27:53.847Z,2.33
2022-10-24T20:30:25.398Z,1.20
2022-10-24T20:32:56.369Z,0.98
2022-10-24T20:37:59.932Z,0.88
2022-10-24T20:40:29.527Z,0.70
2022-10-24T20:42:58.868Z,0.73
2022-10-24T20:45:29.437Z,1.02
2022-10-24T20:47:58.617Z,0.90
2022-10-24T20:50:27.661Z,0.98
2022-10-24T20:52:57.913Z,0.70
2022-10-24T20:55:39.523Z,0.80
2022-10-24T20:58:13.780Z,1.00
2022-10-24T21:00:44.288Z,1.00
2022-10-24T21:03:15.251Z,1.30
2022-10-24T21:05:44.393Z,0.80
2022-10-24T21:08:13.663Z,1.23
2022-10-24T21:10:42.949Z,1.00
2022-10-24T21:13:12.004Z,0.80
2022-10-24T21:15:41.215Z,0.80
2022-10-24T21:18:11.715Z,1.00
2022-10-24T21:20:40.935Z,0.80
2022-10-24T21:23:10.027Z,0.85
2022-10-24T21:25:39.429Z,0.63
2022-10-24T21:28:08.694Z,1.48
2022-10-24T21:30:37.734Z,1.20
2022-10-24T21:33:10.847Z,1.00
2022-10-24T21:35:42.899Z,1.02
2022-10-24T21:38:12.133Z,0.82
2022-10-24T21:40:41.242Z,0.60
2022-10-24T21:43:10.491Z,1.00
2022-10-24T21:45:39.676Z,0.90
2022-10-24T21:48:09.216Z,1.00
2022-10-24T21:50:38.573Z,0.70
2022-10-24T21:53:09.243Z,0.88
2022-10-24T21:55:38.418Z,0.88
2022-10-24T21:58:07.418Z,0.75
2022-10-24T22:00:39.501Z,0.70
2022-10-24T22:03:09.600Z,0.98
2022-10-24T22:05:38.872Z,0.73
2022-10-24T22:08:09.577Z,0.98
2022-10-24T22:10:38.739Z,0.90
2022-10-24T22:13:07.808Z,1.00
2022-10-24T22:15:37.164Z,0.98
2022-10-24T22:18:06.449Z,1.10
2022-10-24T22:20:35.513Z,0.80
2022-10-24T22:23:04.725Z,0.77
2022-10-24T22:25:35.169Z,0.80
2022-10-24T22:28:04.374Z,0.70
2022-10-24T22:30:33.576Z,0.95
2022-10-24T22:33:03.272Z,1.00
2022-10-24T22:35:33.322Z,0.82
2022-10-24T22:38:03.134Z,0.85
2022-10-24T22:40:35.215Z,1.00
2022-10-24T22:43:04.715Z,0.98
2022-10-24T22:45:34.615Z,1.30
2022-10-24T22:48:12.373Z,0.60
2022-10-24T22:50:49.956Z,0.80
2022-10-24T22:53:20.691Z,0.68
2022-10-24T22:56:11.680Z,1.17
2022-10-24T22:58:42.017Z,1.02
2022-10-24T23:01:46.884Z,0.80
2022-10-24T23:04:25.971Z,0.85
2022-10-24T23:06:59.580Z,1.00
2022-10-24T23:09:28.725Z,0.85
2022-10-24T23:12:02.035Z,1.00
2022-10-24T23:14:31.755Z,1.05
2022-10-24T23:17:02.009Z,0.88
2022-10-24T23:19:32.851Z,0.90
2022-10-24T23:22:04.795Z,0.93
2022-10-24T23:24:34.843Z,0.90
2022-10-24T23:27:24.664Z,0.90
2022-10-24T23:29:54.195Z,1.00
2022-10-24T23:32:27.851Z,1.02
2022-10-24T23:34:58.525Z,0.88
2022-10-24T23:37:33.407Z,0.93
2022-10-24T23:40:13.092Z,1.02
2022-10-24T23:42:44.675Z,0.90
2022-10-24T23:45:15.117Z,0.90
2022-10-24T23:47:54.537Z,0.80
2022-10-24T23:50:29.927Z,0.70
2022-10-24T23:53:09.361Z,1.10
2022-10-24T23:55:39.027Z,0.93
2022-10-24T23:58:11.694Z,0.88
